createdAt,value
2023-04-18T00:02:04.286Z,12.29
2023-04-18T00:05:07.833Z,12.32
2023-04-18T00:08:10.834Z,12.37
2023-04-18T00:11:13.451Z,12.36
2023-04-18T00:14:16.093Z,12.29
2023-04-18T00:17:18.896Z,12.34
2023-04-18T00:20:21.458Z,12.34
2023-04-18T00:23:28.141Z,12.30
2023-04-18T00:26:30.982Z,12.34
2023-04-18T00:29:33.569Z,12.29
2023-04-18T00:32:36.486Z,12.27
2023-04-18T00:35:39.055Z,12.29
2023-04-18T00:38:43.310Z,12.25
2023-04-18T00:41:45.765Z,12.32
2023-04-18T00:44:48.802Z,12.27
2023-04-18T00:47:51.725Z,12.27
2023-04-18T00:50:54.672Z,12.27
2023-04-18T00:53:57.585Z,12.17
2023-04-18T00:57:00.773Z,12.25
2023-04-18T01:00:10.285Z,12.14
2023-04-18T01:03:14.560Z,12.28
2023-04-18T01:06:17.705Z,12.20
2023-04-18T01:09:21.124Z,12.14
2023-04-18T01:12:23.982Z,12.15
2023-04-18T01:15:26.464Z,12.13
2023-04-18T01:18:31.531Z,12.10
2023-04-18T01:21:36.159Z,12.09
2023-04-18T01:24:38.649Z,12.07
2023-04-18T01:27:41.137Z,12.10
2023-04-18T01:30:43.960Z,11.95
2023-04-18T01:33:46.412Z,11.98
2023-04-18T01:36:50.903Z,12.09
2023-04-18T01:39:53.868Z,12.02
2023-04-18T01:42:56.398Z,12.02
2023-04-18T01:45:58.958Z,12.08
2023-04-18T01:49:01.681Z,11.99
2023-04-18T01:52:04.254Z,12.02
2023-04-18T01:55:06.938Z,12.00
2023-04-18T01:58:11.057Z,12.01
2023-04-18T02:01:13.626Z,12.03
2023-04-18T02:04:16.377Z,11.97
2023-04-18T02:07:21.854Z,12.03
2023-04-18T02:10:24.572Z,12.03
2023-04-18T02:13:27.343Z,12.07
2023-04-18T02:16:29.864Z,12.08
2023-04-18T02:19:32.340Z,12.13
2023-04-18T02:22:37.742Z,12.13
2023-04-18T02:25:40.357Z,12.12
2023-04-18T02:28:43.082Z,12.05
2023-04-18T02:31:45.776Z,12.03
2023-04-18T02:34:50.730Z,12.21
2023-04-18T02:37:53.256Z,12.14
2023-04-18T02:40:56.117Z,12.19
2023-04-18T02:43:59.142Z,12.16
2023-04-18T02:47:01.832Z,12.09
2023-04-18T02:50:05.934Z,12.27
2023-04-18T02:53:09.153Z,12.20
2023-04-18T02:56:26.533Z,12.22
2023-04-18T02:59:55.797Z,12.16
2023-04-18T03:03:17.159Z,12.15
2023-04-18T03:06:50.093Z,12.16
2023-04-18T03:09:54.072Z,12.23
2023-04-18T03:13:03.646Z,12.10
2023-04-18T03:16:06.937Z,12.09
2023-04-18T03:19:10.519Z,12.18
2023-04-18T03:22:14.383Z,12.10
2023-04-18T03:25:24.166Z,11.97
2023-04-18T03:28:28.620Z,12.11
2023-04-18T03:31:32.141Z,12.14
2023-04-18T03:34:34.637Z,12.10
2023-04-18T03:37:39.393Z,12.11
2023-04-18T03:40:44.534Z,12.08
2023-04-18T03:43:54.957Z,12.11
2023-04-18T03:46:57.522Z,12.11
2023-04-18T03:50:01.355Z,12.12
2023-04-18T03:53:04.954Z,12.12
2023-04-18T03:56:10.711Z,12.07
2023-04-18T03:59:26.332Z,12.14
2023-04-18T04:02:28.954Z,12.17
2023-04-18T04:05:31.778Z,12.13
2023-04-18T04:08:34.724Z,12.12
2023-04-18T04:11:38.536Z,12.01
2023-04-18T04:14:43.950Z,12.18
2023-04-18T04:17:47.245Z,12.13
2023-04-18T04:20:50.921Z,11.95
2023-04-18T04:24:09.515Z,12.13
2023-04-18T04:27:18.854Z,12.22
2023-04-18T04:30:22.311Z,12.13
2023-04-18T04:33:28.580Z,12.17
2023-04-18T04:36:35.721Z,12.21
2023-04-18T04:39:40.653Z,12.23
2023-04-18T04:42:58.642Z,12.21
2023-04-18T04:46:07.852Z,12.29
2023-04-18T04:49:12.991Z,12.32
2023-04-18T04:52:15.446Z,12.41
2023-04-18T04:55:19.172Z,12.29
2023-04-18T04:58:22.412Z,12.30
2023-04-18T05:01:36.919Z,12.32
2023-04-18T05:04:39.802Z,12.33
2023-04-18T05:07:42.573Z,12.43
2023-04-18T05:10:46.003Z,12.37
2023-04-18T05:13:49.212Z,12.49
2023-04-18T05:16:51.696Z,12.50
2023-04-18T05:19:54.246Z,12.60
2023-04-18T05:22:56.985Z,12.57
2023-04-18T05:25:59.531Z,12.71
2023-04-18T05:29:02.085Z,12.84
2023-04-18T05:32:07.132Z,12.94
2023-04-18T05:35:09.824Z,12.82
2023-04-18T05:38:12.331Z,12.91
2023-04-18T05:41:14.841Z,12.95
2023-04-18T05:44:18.361Z,13.09
2023-04-18T05:47:21.633Z,13.21
2023-04-18T05:50:26.317Z,13.22
2023-04-18T05:53:35.372Z,13.18
2023-04-18T05:56:40.662Z,13.07
2023-04-18T05:59:51.636Z,13.24
2023-04-18T06:02:57.922Z,13.30
2023-04-18T06:06:01.891Z,13.24
2023-04-18T06:09:10.563Z,13.34
2023-04-18T06:12:17.225Z,13.37
2023-04-18T06:15:20.850Z,13.45
2023-04-18T06:18:24.878Z,13.50
2023-04-18T06:21:28.415Z,13.60
2023-04-18T06:24:37.370Z,13.48
2023-04-18T06:27:42.485Z,13.66
2023-04-18T06:30:45.523Z,13.84
2023-04-18T06:33:48.492Z,14.08
2023-04-18T06:36:52.561Z,14.37
2023-04-18T06:39:55.446Z,14.53
2023-04-18T06:42:58.102Z,14.57
2023-04-18T06:46:01.723Z,14.75
2023-04-18T06:49:07.086Z,14.73
2023-04-18T06:52:09.573Z,14.91
2023-04-18T06:55:13.887Z,14.79
2023-04-18T06:58:17.297Z,14.84
2023-04-18T07:01:20.476Z,14.56
2023-04-18T07:04:29.255Z,14.63
2023-04-18T07:07:38.226Z,14.55
2023-04-18T07:10:44.094Z,14.73
2023-04-18T07:13:48.771Z,14.93
2023-04-18T07:16:51.921Z,15.07
2023-04-18T07:20:03.204Z,15.06
2023-04-18T07:23:06.420Z,15.00
2023-04-18T07:26:10.025Z,15.05
2023-04-18T07:29:12.861Z,15.03
2023-04-18T07:32:15.600Z,15.08
2023-04-18T07:35:18.338Z,15.37
2023-04-18T07:38:21.068Z,15.40
2023-04-18T07:41:24.129Z,15.50
2023-04-18T07:44:32.619Z,15.67
2023-04-18T07:47:39.392Z,16.00
2023-04-18T07:50:43.225Z,15.91
2023-04-18T07:53:48.822Z,15.90
2023-04-18T07:56:52.545Z,15.74
2023-04-18T07:59:55.728Z,15.91
2023-04-18T08:03:00.128Z,16.08
2023-04-18T08:06:03.344Z,16.54
2023-04-18T08:09:06.472Z,16.59
2023-04-18T08:12:16.383Z,16.72
2023-04-18T08:15:23.658Z,16.88
2023-04-18T08:18:26.799Z,17.04
2023-04-18T08:21:29.582Z,16.96
2023-04-18T08:24:32.155Z,17.05
2023-04-18T08:27:34.680Z,17.13
2023-04-18T08:30:37.703Z,17.11
2023-04-18T08:33:41.205Z,17.12
2023-04-18T08:36:43.651Z,17.59
2023-04-18T08:39:46.589Z,17.71
2023-04-18T08:43:00.683Z,18.09
2023-04-18T08:46:06.933Z,18.06
2023-04-18T08:49:14.762Z,18.74
2023-04-18T08:52:19.092Z,18.97
2023-04-18T08:55:25.282Z,18.86
2023-04-18T08:58:28.512Z,18.94
2023-04-18T09:01:50.598Z,18.60
2023-04-18T09:04:56.962Z,18.76
2023-04-18T09:07:59.542Z,18.63
2023-04-18T09:11:42.624Z,19.55
2023-04-18T09:14:48.678Z,19.34
2023-04-18T09:17:57.645Z,20.12
2023-04-18T09:21:19.486Z,20.61
2023-04-18T09:24:24.925Z,20.56
2023-04-18T09:27:35.143Z,20.78
2023-04-18T09:30:40.192Z,20.87
2023-04-18T09:33:57.151Z,21.13
2023-04-18T09:37:07.221Z,21.32
2023-04-18T09:40:20.783Z,20.99
2023-04-18T09:43:24.641Z,20.94
2023-04-18T09:46:27.813Z,20.95
2023-04-18T09:49:30.348Z,21.04
2023-04-18T09:52:38.534Z,20.76
2023-04-18T09:55:42.441Z,20.50
2023-04-18T09:58:47.532Z,20.84
2023-04-18T10:01:58.472Z,20.69
2023-04-18T10:05:04.992Z,20.73
2023-04-18T10:08:08.321Z,20.73
2023-04-18T10:11:12.197Z,20.45
2023-04-18T10:14:16.756Z,20.53
2023-04-18T10:17:20.475Z,20.45
2023-04-18T10:20:29.497Z,20.39
2023-04-18T10:23:35.707Z,20.92
2023-04-18T10:26:50.534Z,20.99
2023-04-18T10:29:54.492Z,20.82
2023-04-18T10:32:58.570Z,21.07
2023-04-18T10:36:17.356Z,20.95
2023-04-18T10:39:22.515Z,20.81
2023-04-18T10:42:47.315Z,20.55
2023-04-18T10:46:30.445Z,20.49
2023-04-18T11:07:47.800Z,20.58
2023-04-18T11:11:00.628Z,20.03
2023-04-18T11:14:04.173Z,19.85
2023-04-18T11:17:24.598Z,19.58
2023-04-18T11:20:37.538Z,19.80
2023-04-18T11:23:41.281Z,20.01
2023-04-18T11:26:44.394Z,20.60
2023-04-18T11:29:53.059Z,21.03
2023-04-18T11:32:56.061Z,20.85
2023-04-18T11:35:59.576Z,21.64
2023-04-18T11:39:02.506Z,21.98
2023-04-18T11:42:05.155Z,22.08
2023-04-18T11:45:16.715Z,22.42
2023-04-18T11:48:19.298Z,22.53
2023-04-18T11:51:36.092Z,23.74
2023-04-18T11:54:41.384Z,25.37
2023-04-18T11:57:56.547Z,26.60
2023-04-18T12:00:59.792Z,26.91
2023-04-18T12:04:04.336Z,25.48
2023-04-18T12:07:07.650Z,23.65
2023-04-18T12:10:22.184Z,23.04
2023-04-18T12:13:26.831Z,22.46
2023-04-18T12:16:30.797Z,21.85
2023-04-18T12:19:34.298Z,21.78
2023-04-18T12:22:42.231Z,22.18
2023-04-18T12:25:44.677Z,22.69
2023-04-18T12:28:51.366Z,22.70
2023-04-18T12:31:55.307Z,22.00
2023-04-18T12:34:57.920Z,22.00
2023-04-18T12:38:02.756Z,27.68
2023-04-18T12:41:05.664Z,28.20
2023-04-18T12:44:09.314Z,31.57
2023-04-18T12:47:11.993Z,32.08
2023-04-18T12:50:23.790Z,33.17
2023-04-18T12:53:26.771Z,34.38
2023-04-18T12:56:29.197Z,32.50
2023-04-18T12:59:33.669Z,32.81
2023-04-18T13:02:40.880Z,33.18
2023-04-18T13:05:43.571Z,33.81
2023-04-18T13:08:47.797Z,33.77
2023-04-18T13:11:50.258Z,33.87
2023-04-18T13:14:54.150Z,33.64
2023-04-18T13:17:56.984Z,33.74
2023-04-18T13:20:59.674Z,34.04
2023-04-18T13:24:02.270Z,34.43
2023-04-18T13:27:10.394Z,34.27
2023-04-18T13:30:14.506Z,34.32
2023-04-18T13:33:17.096Z,34.42
2023-04-18T13:36:19.879Z,34.23
2023-04-18T13:39:24.875Z,33.98
2023-04-18T13:42:27.348Z,34.66
2023-04-18T13:45:31.369Z,36.29
2023-04-18T13:48:35.010Z,35.39
2023-04-18T13:51:37.973Z,34.69
2023-04-18T13:54:41.475Z,34.28
2023-04-18T13:57:43.996Z,34.60
2023-04-18T14:00:47.834Z,34.33
2023-04-18T14:03:50.484Z,33.27
2023-04-18T14:06:53.156Z,30.77
2023-04-18T14:09:56.114Z,29.85
2023-04-18T14:12:59.461Z,29.67
2023-04-18T14:16:01.943Z,31.59
2023-04-18T14:19:04.499Z,32.04
2023-04-18T14:22:07.938Z,33.22
2023-04-18T14:25:10.436Z,33.13
2023-04-18T14:28:12.972Z,32.98
2023-04-18T14:31:15.781Z,33.27
2023-04-18T14:34:18.650Z,33.99
2023-04-18T14:37:21.299Z,33.43
2023-04-18T14:40:24.453Z,32.69
2023-04-18T14:43:27.543Z,33.41
2023-04-18T14:46:30.821Z,32.57
2023-04-18T14:49:33.859Z,32.45
2023-04-18T14:52:37.235Z,31.93
2023-04-18T14:55:39.741Z,32.20
2023-04-18T14:58:42.904Z,32.42
2023-04-18T15:01:45.835Z,32.42
2023-04-18T15:04:48.652Z,32.06
2023-04-18T15:07:52.182Z,30.13
2023-04-18T15:10:55.117Z,30.82
2023-04-18T15:13:57.538Z,31.04
2023-04-18T15:17:00.041Z,29.70
2023-04-18T15:20:02.932Z,27.25
2023-04-18T15:23:05.537Z,25.80
2023-04-18T15:26:08.039Z,24.99
2023-04-18T15:29:10.654Z,24.22
2023-04-18T15:32:14.521Z,23.76
2023-04-18T15:35:17.271Z,23.45
2023-04-18T15:38:19.778Z,23.37
2023-04-18T15:41:22.265Z,23.24
2023-04-18T15:44:24.671Z,23.04
2023-04-18T15:47:27.258Z,22.79
2023-04-18T15:50:31.535Z,22.60
2023-04-18T15:53:35.902Z,22.58
2023-04-18T15:56:38.316Z,22.19
2023-04-18T15:59:40.984Z,21.98
2023-04-18T16:02:45.296Z,22.70
2023-04-18T16:05:48.200Z,22.43
2023-04-18T16:08:51.208Z,22.66
2023-04-18T16:11:53.637Z,22.37
2023-04-18T16:14:56.105Z,23.37
2023-04-18T16:17:58.823Z,23.40
2023-04-18T16:21:01.440Z,22.37
2023-04-18T16:24:04.666Z,21.94
2023-04-18T16:27:07.192Z,22.01
2023-04-18T16:30:12.572Z,21.67
2023-04-18T16:33:15.781Z,21.03
2023-04-18T16:36:18.372Z,20.52
2023-04-18T16:39:20.909Z,20.10
2023-04-18T16:42:23.825Z,19.94
2023-04-18T16:45:26.259Z,19.69
2023-04-18T16:48:31.497Z,19.61
2023-04-18T16:51:37.169Z,19.40
2023-04-18T16:54:40.332Z,19.22
2023-04-18T16:57:42.985Z,19.09
2023-04-18T17:00:46.097Z,18.83
2023-04-18T17:03:49.133Z,18.73
2023-04-18T17:06:52.175Z,18.63
2023-04-18T17:09:54.781Z,18.39
2023-04-18T17:12:58.512Z,18.30
2023-04-18T17:16:01.315Z,18.19
2023-04-18T17:19:03.884Z,18.03
2023-04-18T17:22:07.827Z,17.91
2023-04-18T17:25:10.465Z,17.78
2023-04-18T17:28:13.945Z,17.72
2023-04-18T17:31:16.683Z,17.57
2023-04-18T17:34:19.422Z,17.56
2023-04-18T17:37:22.487Z,17.41
2023-04-18T17:40:25.344Z,17.35
2023-04-18T17:43:28.288Z,17.22
2023-04-18T17:46:31.859Z,17.22
2023-04-18T17:49:37.654Z,17.16
2023-04-18T17:52:40.231Z,17.10
2023-04-18T17:55:43.888Z,17.02
2023-04-18T17:58:47.246Z,16.99
2023-04-18T18:01:50.135Z,16.89
2023-04-18T18:04:53.010Z,16.83
2023-04-18T18:07:57.638Z,16.82
2023-04-18T18:11:02.792Z,16.65
2023-04-18T18:14:05.495Z,16.67
2023-04-18T18:17:08.136Z,16.51
2023-04-18T18:20:11.553Z,16.59
2023-04-18T18:23:14.743Z,16.52
2023-04-18T18:26:17.485Z,16.61
2023-04-18T18:29:20.397Z,16.53
2023-04-18T18:32:23.210Z,16.43
2023-04-18T18:35:26.003Z,16.39
2023-04-18T18:38:28.837Z,16.35
2023-04-18T18:41:31.536Z,16.31
2023-04-18T18:44:34.778Z,16.11
2023-04-18T18:47:39.788Z,15.94
2023-04-18T18:50:42.922Z,15.85
2023-04-18T18:53:47.054Z,15.73
2023-04-18T18:56:51.327Z,15.66
2023-04-18T18:59:55.698Z,15.64
2023-04-18T19:02:58.933Z,15.54
2023-04-18T19:06:03.953Z,15.54
2023-04-18T19:09:07.146Z,15.38
2023-04-18T19:12:11.295Z,15.43
2023-04-18T19:15:14.254Z,15.33
2023-04-18T19:18:19.532Z,15.31
2023-04-18T19:21:22.749Z,15.34
2023-04-18T19:24:25.516Z,15.39
2023-04-18T19:27:28.460Z,15.37
2023-04-18T19:30:32.066Z,15.30
2023-04-18T19:33:34.966Z,15.36
2023-04-18T19:36:38.056Z,15.39
2023-04-18T19:39:40.960Z,15.33
2023-04-18T19:42:43.708Z,15.26
2023-04-18T19:45:46.777Z,15.21
2023-04-18T19:48:49.728Z,15.22
2023-04-18T19:51:53.219Z,15.17
2023-04-18T19:54:56.813Z,15.21
2023-04-18T19:58:00.246Z,15.17
2023-04-18T20:01:05.848Z,15.12
2023-04-18T20:04:08.684Z,15.18
2023-04-18T20:07:11.611Z,15.13
2023-04-18T20:10:14.421Z,15.10
2023-04-18T20:13:17.165Z,15.08
2023-04-18T20:16:21.062Z,15.13
2023-04-18T20:19:26.880Z,15.19
2023-04-18T20:22:29.465Z,15.23
2023-04-18T20:25:33.731Z,15.09
2023-04-18T20:28:37.877Z,15.07
2023-04-18T20:31:42.442Z,15.09
2023-04-18T20:34:46.717Z,15.00
2023-04-18T20:37:49.858Z,15.02
2023-04-18T20:40:53.254Z,15.01
2023-04-18T20:43:58.763Z,14.90
2023-04-18T20:47:01.886Z,14.90
2023-04-18T20:50:05.361Z,14.76
2023-04-18T20:53:07.907Z,14.62
2023-04-18T20:56:10.427Z,14.60
2023-04-18T20:59:13.362Z,14.58
2023-04-18T21:02:17.308Z,14.55
2023-04-18T21:05:19.843Z,14.43
2023-04-18T21:08:22.638Z,14.43
2023-04-18T21:11:25.295Z,14.41
2023-04-18T21:14:28.021Z,14.44
2023-04-18T21:17:30.514Z,14.34
2023-04-18T21:20:34.286Z,14.24
2023-04-18T21:23:43.727Z,14.30
2023-04-18T21:26:46.171Z,14.28
2023-04-18T21:29:48.748Z,14.22
2023-04-18T21:32:51.602Z,14.20
2023-04-18T21:35:54.075Z,14.22
2023-04-18T21:38:58.938Z,14.23
2023-04-18T21:42:01.914Z,14.19
2023-04-18T21:45:06.410Z,14.16
2023-04-18T21:48:09.545Z,14.18
2023-04-18T21:51:14.578Z,14.12
2023-04-18T21:54:17.455Z,14.08
2023-04-18T21:57:20.642Z,14.14
2023-04-18T22:00:23.971Z,14.05
2023-04-18T22:03:28.723Z,14.07
2023-04-18T22:06:32.403Z,14.00
2023-04-18T22:09:36.353Z,14.04
2023-04-18T22:12:38.849Z,14.06
2023-04-18T22:15:42.361Z,14.03
2023-04-18T22:18:45.760Z,14.03
2023-04-18T22:21:48.263Z,14.11
2023-04-18T22:24:50.816Z,14.12
2023-04-18T22:27:53.226Z,14.05
2023-04-18T22:30:55.881Z,14.07
2023-04-18T22:33:58.694Z,14.02
2023-04-18T22:37:01.404Z,14.02
2023-04-18T22:40:07.160Z,14.11
2023-04-18T22:43:13.964Z,14.03
2023-04-18T22:46:16.448Z,13.98
2023-04-18T22:49:18.954Z,13.95
2023-04-18T22:52:24.769Z,13.87
2023-04-18T22:55:27.472Z,13.96
2023-04-18T22:58:31.418Z,14.01
2023-04-18T23:01:34.630Z,13.97
2023-04-18T23:04:37.253Z,13.78
2023-04-18T23:07:39.829Z,13.90
2023-04-18T23:10:42.212Z,13.82
2023-04-18T23:13:44.724Z,13.86
2023-04-18T23:16:47.195Z,13.82
2023-04-18T23:19:49.786Z,13.83
2023-04-18T23:22:52.791Z,13.84
2023-04-18T23:25:55.562Z,13.70
2023-04-18T23:28:58.040Z,13.64
2023-04-18T23:32:00.948Z,13.77
2023-04-18T23:35:06.031Z,13.72
2023-04-18T23:38:08.764Z,13.72
2023-04-18T23:41:11.178Z,13.62
2023-04-18T23:44:13.894Z,13.60
2023-04-18T23:47:16.832Z,13.62
2023-04-18T23:50:19.741Z,13.58
2023-04-18T23:53:23.249Z,13.50
2023-04-18T23:56:26.348Z,13.47
2023-04-18T23:59:28.911Z,13.53
